sensor_id;sensor_type;location;lat;lon;timestamp;P1;durP1;ratioP1;P2;durP2;ratioP2
76733;SDS011;65660;53.288;14.666;2024-03-25T00:04:57;10.13;;;8.10;;
76733;SDS011;65660;53.288;14.666;2024-03-25T00:09:58;9.93;;;6.40;;
76733;SDS011;65660;53.288;14.666;2024-03-25T00:14:59;10.10;;;6.80;;
76733;SDS011;65660;53.288;14.666;2024-03-25T00:19:59;9.93;;;6.50;;
76733;SDS011;65660;53.288;14.666;2024-03-25T00:25:00;10.73;;;6.70;;
76733;SDS011;65660;53.288;14.666;2024-03-25T00:30:01;9.13;;;6.63;;
76733;SDS011;65660;53.288;14.666;2024-03-25T00:35:02;10.63;;;6.83;;
76733;SDS011;65660;53.288;14.666;2024-03-25T00:40:03;10.90;;;6.60;;
76733;SDS011;65660;53.288;14.666;2024-03-25T00:45:04;11.30;;;7.00;;
76733;SDS011;65660;53.288;14.666;2024-03-25T00:50:05;11.63;;;7.67;;
76733;SDS011;65660;53.288;14.666;2024-03-25T00:55:06;10.30;;;6.60;;
76733;SDS011;65660;53.288;14.666;2024-03-25T01:00:07;11.20;;;7.70;;
76733;SDS011;65660;53.288;14.666;2024-03-25T01:05:09;10.40;;;6.10;;
76733;SDS011;65660;53.288;14.666;2024-03-25T01:10:10;10.53;;;7.40;;
76733;SDS011;65660;53.288;14.666;2024-03-25T01:15:11;10.90;;;7.70;;
76733;SDS011;65660;53.288;14.666;2024-03-25T01:20:11;10.40;;;7.27;;
76733;SDS011;65660;53.288;14.666;2024-03-25T01:25:13;10.73;;;7.20;;
76733;SDS011;65660;53.288;14.666;2024-03-25T01:30:13;10.63;;;7.87;;
76733;SDS011;65660;53.288;14.666;2024-03-25T01:35:14;12.20;;;7.13;;
76733;SDS011;65660;53.288;14.666;2024-03-25T01:40:15;12.93;;;7.73;;
76733;SDS011;65660;53.288;14.666;2024-03-25T01:45:15;14.03;;;9.80;;
76733;SDS011;65660;53.288;14.666;2024-03-25T01:50:16;12.17;;;8.43;;
76733;SDS011;65660;53.288;14.666;2024-03-25T01:55:26;12.60;;;7.57;;
76733;SDS011;65660;53.288;14.666;2024-03-25T02:00:27;13.60;;;8.23;;
76733;SDS011;65660;53.288;14.666;2024-03-25T02:05:28;14.60;;;8.27;;
76733;SDS011;65660;53.288;14.666;2024-03-25T02:10:29;12.33;;;7.60;;
76733;SDS011;65660;53.288;14.666;2024-03-25T02:15:30;13.70;;;8.03;;
76733;SDS011;65660;53.288;14.666;2024-03-25T02:20:31;12.87;;;7.70;;
76733;SDS011;65660;53.288;14.666;2024-03-25T02:25:31;13.73;;;8.20;;
76733;SDS011;65660;53.288;14.666;2024-03-25T02:30:33;12.33;;;7.57;;
76733;SDS011;65660;53.288;14.666;2024-03-25T02:35:34;14.20;;;8.33;;
76733;SDS011;65660;53.288;14.666;2024-03-25T02:40:36;15.20;;;8.77;;
76733;SDS011;65660;53.288;14.666;2024-03-25T02:45:37;16.37;;;8.67;;
76733;SDS011;65660;53.288;14.666;2024-03-25T02:50:38;15.47;;;8.97;;
76733;SDS011;65660;53.288;14.666;2024-03-25T02:55:38;14.97;;;8.80;;
76733;SDS011;65660;53.288;14.666;2024-03-25T03:00:39;13.47;;;7.80;;
76733;SDS011;65660;53.288;14.666;2024-03-25T03:05:40;11.77;;;7.90;;
76733;SDS011;65660;53.288;14.666;2024-03-25T03:10:40;13.70;;;8.30;;
76733;SDS011;65660;53.288;14.666;2024-03-25T03:15:44;14.10;;;8.03;;
76733;SDS011;65660;53.288;14.666;2024-03-25T03:20:45;14.23;;;9.07;;
76733;SDS011;65660;53.288;14.666;2024-03-25T03:25:45;15.57;;;8.33;;
76733;SDS011;65660;53.288;14.666;2024-03-25T03:30:46;10.93;;;7.27;;
76733;SDS011;65660;53.288;14.666;2024-03-25T03:35:46;12.17;;;7.80;;
76733;SDS011;65660;53.288;14.666;2024-03-25T03:41:01;11.90;;;7.80;;
76733;SDS011;65660;53.288;14.666;2024-03-25T03:46:03;12.30;;;7.87;;
76733;SDS011;65660;53.288;14.666;2024-03-25T03:51:07;12.80;;;7.50;;
76733;SDS011;65660;53.288;14.666;2024-03-25T03:56:08;14.63;;;8.40;;
76733;SDS011;65660;53.288;14.666;2024-03-25T04:01:15;13.03;;;8.07;;
76733;SDS011;65660;53.288;14.666;2024-03-25T04:06:18;11.43;;;7.30;;
76733;SDS011;65660;53.288;14.666;2024-03-25T04:11:19;13.43;;;8.40;;
76733;SDS011;65660;53.288;14.666;2024-03-25T04:16:19;12.40;;;7.50;;
76733;SDS011;65660;53.288;14.666;2024-03-25T04:21:20;12.33;;;7.87;;
76733;SDS011;65660;53.288;14.666;2024-03-25T04:26:21;13.90;;;7.63;;
76733;SDS011;65660;53.288;14.666;2024-03-25T04:31:21;16.30;;;9.40;;
76733;SDS011;65660;53.288;14.666;2024-03-25T04:36:22;14.13;;;7.90;;
76733;SDS011;65660;53.288;14.666;2024-03-25T04:41:23;12.80;;;7.83;;
76733;SDS011;65660;53.288;14.666;2024-03-25T04:46:23;14.23;;;8.23;;
76733;SDS011;65660;53.288;14.666;2024-03-25T04:51:24;12.20;;;7.70;;
76733;SDS011;65660;53.288;14.666;2024-03-25T04:56:24;12.87;;;8.00;;
76733;SDS011;65660;53.288;14.666;2024-03-25T05:01:25;11.87;;;7.60;;
76733;SDS011;65660;53.288;14.666;2024-03-25T05:06:26;14.67;;;8.10;;
76733;SDS011;65660;53.288;14.666;2024-03-25T05:11:27;14.30;;;8.83;;
76733;SDS011;65660;53.288;14.666;2024-03-25T05:16:27;12.30;;;8.13;;
76733;SDS011;65660;53.288;14.666;2024-03-25T05:21:28;15.17;;;8.57;;
76733;SDS011;65660;53.288;14.666;2024-03-25T05:26:28;12.20;;;8.10;;
76733;SDS011;65660;53.288;14.666;2024-03-25T05:31:29;13.07;;;8.20;;
76733;SDS011;65660;53.288;14.666;2024-03-25T05:36:30;12.50;;;8.43;;
76733;SDS011;65660;53.288;14.666;2024-03-25T05:41:30;14.03;;;9.63;;
76733;SDS011;65660;53.288;14.666;2024-03-25T05:46:31;13.53;;;9.13;;
76733;SDS011;65660;53.288;14.666;2024-03-25T05:51:32;15.37;;;9.63;;
76733;SDS011;65660;53.288;14.666;2024-03-25T05:56:32;12.80;;;9.17;;
76733;SDS011;65660;53.288;14.666;2024-03-25T06:01:33;13.00;;;8.53;;
76733;SDS011;65660;53.288;14.666;2024-03-25T06:06:33;12.97;;;8.77;;
76733;SDS011;65660;53.288;14.666;2024-03-25T06:11:34;14.67;;;8.83;;
76733;SDS011;65660;53.288;14.666;2024-03-25T06:16:35;11.13;;;8.30;;
76733;SDS011;65660;53.288;14.666;2024-03-25T06:21:35;13.17;;;8.20;;
76733;SDS011;65660;53.288;14.666;2024-03-25T06:26:36;12.77;;;7.80;;
76733;SDS011;65660;53.288;14.666;2024-03-25T06:31:36;15.57;;;7.93;;
76733;SDS011;65660;53.288;14.666;2024-03-25T06:36:37;12.97;;;7.70;;
76733;SDS011;65660;53.288;14.666;2024-03-25T06:41:37;11.37;;;7.53;;
76733;SDS011;65660;53.288;14.666;2024-03-25T06:46:38;13.43;;;8.27;;
76733;SDS011;65660;53.288;14.666;2024-03-25T06:51:38;14.53;;;8.70;;
76733;SDS011;65660;53.288;14.666;2024-03-25T06:56:39;14.40;;;8.60;;
76733;SDS011;65660;53.288;14.666;2024-03-25T07:01:39;15.87;;;8.20;;
76733;SDS011;65660;53.288;14.666;2024-03-25T07:06:40;13.87;;;9.20;;
76733;SDS011;65660;53.288;14.666;2024-03-25T07:11:41;12.70;;;7.83;;
76733;SDS011;65660;53.288;14.666;2024-03-25T07:16:41;12.30;;;7.40;;
76733;SDS011;65660;53.288;14.666;2024-03-25T07:21:42;13.90;;;8.30;;
76733;SDS011;65660;53.288;14.666;2024-03-25T07:26:42;14.63;;;8.57;;
76733;SDS011;65660;53.288;14.666;2024-03-25T07:31:43;20.90;;;10.70;;
76733;SDS011;65660;53.288;14.666;2024-03-25T07:36:43;14.87;;;8.07;;
76733;SDS011;65660;53.288;14.666;2024-03-25T07:41:44;13.13;;;8.20;;
76733;SDS011;65660;53.288;14.666;2024-03-25T07:46:44;15.07;;;8.33;;
76733;SDS011;65660;53.288;14.666;2024-03-25T07:51:45;12.20;;;8.23;;
76733;SDS011;65660;53.288;14.666;2024-03-25T07:56:45;13.77;;;7.97;;
76733;SDS011;65660;53.288;14.666;2024-03-25T08:01:46;12.83;;;8.00;;
76733;SDS011;65660;53.288;14.666;2024-03-25T08:06:46;14.27;;;8.37;;
76733;SDS011;65660;53.288;14.666;2024-03-25T08:11:47;16.23;;;9.10;;
76733;SDS011;65660;53.288;14.666;2024-03-25T08:16:48;13.50;;;8.63;;
76733;SDS011;65660;53.288;14.666;2024-03-25T08:21:48;13.60;;;8.20;;
76733;SDS011;65660;53.288;14.666;2024-03-25T08:26:49;12.77;;;8.37;;
76733;SDS011;65660;53.288;14.666;2024-03-25T08:31:49;13.10;;;9.30;;
76733;SDS011;65660;53.288;14.666;2024-03-25T08:36:50;14.37;;;8.33;;
76733;SDS011;65660;53.288;14.666;2024-03-25T08:41:50;15.13;;;8.83;;
76733;SDS011;65660;53.288;14.666;2024-03-25T08:46:51;15.83;;;9.47;;
76733;SDS011;65660;53.288;14.666;2024-03-25T08:51:51;14.53;;;9.10;;
76733;SDS011;65660;53.288;14.666;2024-03-25T08:56:52;12.27;;;7.97;;
76733;SDS011;65660;53.288;14.666;2024-03-25T09:01:52;13.73;;;8.37;;
76733;SDS011;65660;53.288;14.666;2024-03-25T09:06:53;18.43;;;8.70;;
76733;SDS011;65660;53.288;14.666;2024-03-25T09:11:54;12.93;;;8.00;;
76733;SDS011;65660;53.288;14.666;2024-03-25T09:16:54;13.63;;;9.00;;
76733;SDS011;65660;53.288;14.666;2024-03-25T09:21:55;15.00;;;9.03;;
76733;SDS011;65660;53.288;14.666;2024-03-25T09:26:55;14.77;;;9.77;;
76733;SDS011;65660;53.288;14.666;2024-03-25T09:31:56;13.93;;;8.43;;
76733;SDS011;65660;53.288;14.666;2024-03-25T09:36:56;16.40;;;9.37;;
76733;SDS011;65660;53.288;14.666;2024-03-25T09:41:56;13.13;;;8.87;;
76733;SDS011;65660;53.288;14.666;2024-03-25T09:46:58;15.07;;;8.70;;
76733;SDS011;65660;53.288;14.666;2024-03-25T09:52:00;12.83;;;8.17;;
76733;SDS011;65660;53.288;14.666;2024-03-25T09:57:01;15.30;;;9.43;;
76733;SDS011;65660;53.288;14.666;2024-03-25T10:02:02;14.30;;;9.13;;
76733;SDS011;65660;53.288;14.666;2024-03-25T10:07:02;14.83;;;8.73;;
76733;SDS011;65660;53.288;14.666;2024-03-25T10:12:03;15.83;;;9.33;;
76733;SDS011;65660;53.288;14.666;2024-03-25T10:17:04;13.30;;;8.97;;
76733;SDS011;65660;53.288;14.666;2024-03-25T10:22:08;16.40;;;9.50;;
76733;SDS011;65660;53.288;14.666;2024-03-25T10:27:19;10.93;;;7.27;;
76733;SDS011;65660;53.288;14.666;2024-03-25T10:32:20;12.00;;;7.80;;
76733;SDS011;65660;53.288;14.666;2024-03-25T10:37:21;13.33;;;7.97;;
76733;SDS011;65660;53.288;14.666;2024-03-25T10:42:22;11.73;;;7.97;;
76733;SDS011;65660;53.288;14.666;2024-03-25T10:47:24;12.80;;;8.63;;
76733;SDS011;65660;53.288;14.666;2024-03-25T10:52:26;12.40;;;8.10;;
76733;SDS011;65660;53.288;14.666;2024-03-25T10:57:27;10.37;;;7.20;;
76733;SDS011;65660;53.288;14.666;2024-03-25T11:02:28;10.37;;;7.40;;
76733;SDS011;65660;53.288;14.666;2024-03-25T11:07:32;11.53;;;7.60;;
76733;SDS011;65660;53.288;14.666;2024-03-25T11:12:34;9.77;;;7.00;;
76733;SDS011;65660;53.288;14.666;2024-03-25T11:17:36;11.40;;;7.37;;
76733;SDS011;65660;53.288;14.666;2024-03-25T11:22:47;11.80;;;8.10;;
76733;SDS011;65660;53.288;14.666;2024-03-25T11:27:48;11.27;;;7.00;;
76733;SDS011;65660;53.288;14.666;2024-03-25T11:32:53;8.37;;;5.90;;
76733;SDS011;65660;53.288;14.666;2024-03-25T11:37:54;8.77;;;5.50;;
76733;SDS011;65660;53.288;14.666;2024-03-25T11:42:54;9.53;;;5.47;;
76733;SDS011;65660;53.288;14.666;2024-03-25T11:47:55;8.87;;;5.97;;
76733;SDS011;65660;53.288;14.666;2024-03-25T11:52:56;9.03;;;6.40;;
76733;SDS011;65660;53.288;14.666;2024-03-25T11:57:56;9.87;;;6.77;;
76733;SDS011;65660;53.288;14.666;2024-03-25T12:02:57;8.03;;;6.10;;
76733;SDS011;65660;53.288;14.666;2024-03-25T12:07:58;7.27;;;5.07;;
76733;SDS011;65660;53.288;14.666;2024-03-25T12:12:58;9.67;;;8.83;;
76733;SDS011;65660;53.288;14.666;2024-03-25T12:17:59;8.00;;;7.20;;
76733;SDS011;65660;53.288;14.666;2024-03-25T12:23:01;7.87;;;5.83;;
76733;SDS011;65660;53.288;14.666;2024-03-25T12:28:07;6.57;;;5.87;;
76733;SDS011;65660;53.288;14.666;2024-03-25T12:33:08;6.20;;;5.17;;
76733;SDS011;65660;53.288;14.666;2024-03-25T12:38:09;6.13;;;5.53;;
76733;SDS011;65660;53.288;14.666;2024-03-25T12:43:13;6.53;;;5.77;;
76733;SDS011;65660;53.288;14.666;2024-03-25T12:48:14;5.80;;;4.70;;
76733;SDS011;65660;53.288;14.666;2024-03-25T12:53:17;7.63;;;5.80;;
76733;SDS011;65660;53.288;14.666;2024-03-25T12:58:18;8.53;;;5.73;;
76733;SDS011;65660;53.288;14.666;2024-03-25T13:03:19;7.07;;;5.90;;
76733;SDS011;65660;53.288;14.666;2024-03-25T13:08:19;8.37;;;6.47;;
76733;SDS011;65660;53.288;14.666;2024-03-25T13:13:20;7.53;;;5.80;;
76733;SDS011;65660;53.288;14.666;2024-03-25T13:18:20;5.87;;;4.90;;
76733;SDS011;65660;53.288;14.666;2024-03-25T13:23:21;5.47;;;4.97;;
76733;SDS011;65660;53.288;14.666;2024-03-25T13:28:21;4.70;;;4.30;;
76733;SDS011;65660;53.288;14.666;2024-03-25T13:33:22;4.73;;;4.27;;
76733;SDS011;65660;53.288;14.666;2024-03-25T13:38:22;5.20;;;4.70;;
76733;SDS011;65660;53.288;14.666;2024-03-25T13:43:23;5.03;;;3.87;;
76733;SDS011;65660;53.288;14.666;2024-03-25T13:48:23;3.80;;;3.50;;
76733;SDS011;65660;53.288;14.666;2024-03-25T13:53:24;4.00;;;3.70;;
76733;SDS011;65660;53.288;14.666;2024-03-25T13:58:24;3.70;;;3.50;;
76733;SDS011;65660;53.288;14.666;2024-03-25T14:03:25;4.57;;;4.23;;
76733;SDS011;65660;53.288;14.666;2024-03-25T14:08:26;4.90;;;4.60;;
76733;SDS011;65660;53.288;14.666;2024-03-25T14:13:27;5.63;;;5.23;;
76733;SDS011;65660;53.288;14.666;2024-03-25T14:18:29;5.20;;;4.80;;
76733;SDS011;65660;53.288;14.666;2024-03-25T14:23:29;6.00;;;5.50;;
76733;SDS011;65660;53.288;14.666;2024-03-25T14:28:30;5.20;;;4.80;;
76733;SDS011;65660;53.288;14.666;2024-03-25T14:33:30;5.07;;;4.67;;
76733;SDS011;65660;53.288;14.666;2024-03-25T14:38:31;6.23;;;5.63;;
76733;SDS011;65660;53.288;14.666;2024-03-25T14:43:31;8.37;;;6.90;;
76733;SDS011;65660;53.288;14.666;2024-03-25T14:48:32;6.47;;;5.80;;
76733;SDS011;65660;53.288;14.666;2024-03-25T14:53:32;7.40;;;6.70;;
76733;SDS011;65660;53.288;14.666;2024-03-25T14:58:33;8.20;;;7.50;;
76733;SDS011;65660;53.288;14.666;2024-03-25T15:03:33;6.60;;;5.90;;
76733;SDS011;65660;53.288;14.666;2024-03-25T15:08:34;8.03;;;5.90;;
76733;SDS011;65660;53.288;14.666;2024-03-25T15:13:35;7.83;;;7.10;;
76733;SDS011;65660;53.288;14.666;2024-03-25T15:18:35;6.70;;;5.80;;
76733;SDS011;65660;53.288;14.666;2024-03-25T15:23:36;6.03;;;5.40;;
76733;SDS011;65660;53.288;14.666;2024-03-25T15:28:37;6.87;;;5.47;;
76733;SDS011;65660;53.288;14.666;2024-03-25T15:33:37;6.20;;;5.60;;
76733;SDS011;65660;53.288;14.666;2024-03-25T15:38:38;6.90;;;5.37;;
76733;SDS011;65660;53.288;14.666;2024-03-25T15:43:38;5.50;;;5.00;;
76733;SDS011;65660;53.288;14.666;2024-03-25T15:48:39;7.13;;;6.47;;
76733;SDS011;65660;53.288;14.666;2024-03-25T15:53:40;8.27;;;7.57;;
76733;SDS011;65660;53.288;14.666;2024-03-25T15:58:41;6.27;;;5.67;;
76733;SDS011;65660;53.288;14.666;2024-03-25T16:03:41;5.90;;;5.40;;
76733;SDS011;65660;53.288;14.666;2024-03-25T16:08:42;7.63;;;6.93;;
76733;SDS011;65660;53.288;14.666;2024-03-25T16:13:42;7.63;;;6.83;;
76733;SDS011;65660;53.288;14.666;2024-03-25T16:18:43;6.50;;;5.90;;
76733;SDS011;65660;53.288;14.666;2024-03-25T16:23:44;6.70;;;6.10;;
76733;SDS011;65660;53.288;14.666;2024-03-25T16:28:45;9.67;;;6.73;;
76733;SDS011;65660;53.288;14.666;2024-03-25T16:33:45;7.57;;;6.57;;
76733;SDS011;65660;53.288;14.666;2024-03-25T16:38:46;8.40;;;6.30;;
76733;SDS011;65660;53.288;14.666;2024-03-25T16:43:46;7.77;;;6.57;;
76733;SDS011;65660;53.288;14.666;2024-03-25T16:48:47;8.03;;;7.23;;
76733;SDS011;65660;53.288;14.666;2024-03-25T16:53:47;8.73;;;6.83;;
76733;SDS011;65660;53.288;14.666;2024-03-25T16:58:48;7.67;;;6.17;;
76733;SDS011;65660;53.288;14.666;2024-03-25T17:03:48;8.40;;;6.63;;
76733;SDS011;65660;53.288;14.666;2024-03-25T17:08:49;8.93;;;7.80;;
76733;SDS011;65660;53.288;14.666;2024-03-25T17:13:49;7.83;;;6.67;;
76733;SDS011;65660;53.288;14.666;2024-03-25T17:18:50;8.80;;;6.97;;
76733;SDS011;65660;53.288;14.666;2024-03-25T17:23:50;15.50;;;11.23;;
76733;SDS011;65660;53.288;14.666;2024-03-25T17:28:51;7.83;;;6.67;;
76733;SDS011;65660;53.288;14.666;2024-03-25T17:33:52;10.97;;;8.33;;
76733;SDS011;65660;53.288;14.666;2024-03-25T17:38:52;11.50;;;9.00;;
76733;SDS011;65660;53.288;14.666;2024-03-25T17:43:53;8.93;;;6.70;;
76733;SDS011;65660;53.288;14.666;2024-03-25T17:48:53;8.70;;;7.80;;
76733;SDS011;65660;53.288;14.666;2024-03-25T17:53:54;7.33;;;5.77;;
76733;SDS011;65660;53.288;14.666;2024-03-25T17:58:55;7.67;;;5.73;;
76733;SDS011;65660;53.288;14.666;2024-03-25T18:03:55;8.33;;;5.50;;
76733;SDS011;65660;53.288;14.666;2024-03-25T18:08:56;7.47;;;6.03;;
76733;SDS011;65660;53.288;14.666;2024-03-25T18:13:57;8.50;;;4.80;;
76733;SDS011;65660;53.288;14.666;2024-03-25T18:18:58;8.27;;;5.50;;
76733;SDS011;65660;53.288;14.666;2024-03-25T18:23:58;7.23;;;5.17;;
76733;SDS011;65660;53.288;14.666;2024-03-25T18:28:59;6.93;;;5.00;;
76733;SDS011;65660;53.288;14.666;2024-03-25T18:33:59;6.80;;;5.30;;
76733;SDS011;65660;53.288;14.666;2024-03-25T18:39:00;7.03;;;5.10;;
76733;SDS011;65660;53.288;14.666;2024-03-25T18:44:01;6.03;;;5.00;;
76733;SDS011;65660;53.288;14.666;2024-03-25T18:49:02;10.93;;;5.80;;
76733;SDS011;65660;53.288;14.666;2024-03-25T18:54:03;8.33;;;6.00;;
76733;SDS011;65660;53.288;14.666;2024-03-25T18:59:03;8.53;;;6.20;;
76733;SDS011;65660;53.288;14.666;2024-03-25T19:04:04;9.73;;;8.83;;
76733;SDS011;65660;53.288;14.666;2024-03-25T19:09:04;7.83;;;6.60;;
76733;SDS011;65660;53.288;14.666;2024-03-25T19:14:05;7.83;;;6.87;;
76733;SDS011;65660;53.288;14.666;2024-03-25T19:19:05;8.77;;;6.70;;
76733;SDS011;65660;53.288;14.666;2024-03-25T19:24:06;9.60;;;6.70;;
76733;SDS011;65660;53.288;14.666;2024-03-25T19:29:07;9.37;;;7.13;;
76733;SDS011;65660;53.288;14.666;2024-03-25T19:34:07;8.30;;;7.30;;
76733;SDS011;65660;53.288;14.666;2024-03-25T19:39:08;8.77;;;7.13;;
76733;SDS011;65660;53.288;14.666;2024-03-25T19:44:08;7.83;;;5.90;;
76733;SDS011;65660;53.288;14.666;2024-03-25T19:49:09;10.03;;;8.83;;
76733;SDS011;65660;53.288;14.666;2024-03-25T19:54:09;8.77;;;7.87;;
76733;SDS011;65660;53.288;14.666;2024-03-25T19:59:10;6.77;;;5.40;;
76733;SDS011;65660;53.288;14.666;2024-03-25T20:04:10;5.93;;;5.30;;
76733;SDS011;65660;53.288;14.666;2024-03-25T20:09:11;4.70;;;4.30;;
76733;SDS011;65660;53.288;14.666;2024-03-25T20:14:12;4.93;;;4.53;;
76733;SDS011;65660;53.288;14.666;2024-03-25T20:19:12;5.10;;;4.53;;
76733;SDS011;65660;53.288;14.666;2024-03-25T20:24:13;7.93;;;5.77;;
76733;SDS011;65660;53.288;14.666;2024-03-25T20:29:14;7.00;;;5.60;;
76733;SDS011;65660;53.288;14.666;2024-03-25T20:34:14;7.67;;;5.87;;
76733;SDS011;65660;53.288;14.666;2024-03-25T20:39:15;6.20;;;5.60;;
76733;SDS011;65660;53.288;14.666;2024-03-25T20:44:15;6.83;;;5.43;;
76733;SDS011;65660;53.288;14.666;2024-03-25T20:49:16;8.47;;;6.07;;
76733;SDS011;65660;53.288;14.666;2024-03-25T20:54:17;9.47;;;6.53;;
76733;SDS011;65660;53.288;14.666;2024-03-25T20:59:17;10.13;;;6.77;;
76733;SDS011;65660;53.288;14.666;2024-03-25T21:04:18;12.53;;;6.83;;
76733;SDS011;65660;53.288;14.666;2024-03-25T21:09:18;10.67;;;7.00;;
76733;SDS011;65660;53.288;14.666;2024-03-25T21:14:19;9.40;;;6.10;;
76733;SDS011;65660;53.288;14.666;2024-03-25T21:19:19;10.20;;;6.27;;
76733;SDS011;65660;53.288;14.666;2024-03-25T21:24:20;10.80;;;6.83;;
76733;SDS011;65660;53.288;14.666;2024-03-25T21:29:21;10.00;;;6.27;;
76733;SDS011;65660;53.288;14.666;2024-03-25T21:34:22;12.87;;;7.30;;
76733;SDS011;65660;53.288;14.666;2024-03-25T21:39:22;9.23;;;6.27;;
76733;SDS011;65660;53.288;14.666;2024-03-25T21:44:23;8.87;;;7.03;;
76733;SDS011;65660;53.288;14.666;2024-03-25T21:49:24;14.47;;;8.97;;
76733;SDS011;65660;53.288;14.666;2024-03-25T21:54:24;12.80;;;8.20;;
76733;SDS011;65660;53.288;14.666;2024-03-25T21:59:25;11.30;;;7.93;;
76733;SDS011;65660;53.288;14.666;2024-03-25T22:04:26;12.07;;;7.57;;
76733;SDS011;65660;53.288;14.666;2024-03-25T22:09:26;10.70;;;7.60;;
76733;SDS011;65660;53.288;14.666;2024-03-25T22:14:27;11.63;;;8.17;;
76733;SDS011;65660;53.288;14.666;2024-03-25T22:19:27;12.87;;;7.93;;
76733;SDS011;65660;53.288;14.666;2024-03-25T22:24:28;12.13;;;8.07;;
76733;SDS011;65660;53.288;14.666;2024-03-25T22:29:28;15.40;;;8.73;;
76733;SDS011;65660;53.288;14.666;2024-03-25T22:34:29;10.30;;;7.40;;
76733;SDS011;65660;53.288;14.666;2024-03-25T22:39:30;16.33;;;7.90;;
76733;SDS011;65660;53.288;14.666;2024-03-25T22:44:31;14.63;;;8.73;;
76733;SDS011;65660;53.288;14.666;2024-03-25T22:49:32;14.67;;;8.97;;
76733;SDS011;65660;53.288;14.666;2024-03-25T22:54:33;14.13;;;9.10;;
76733;SDS011;65660;53.288;14.666;2024-03-25T22:59:34;13.47;;;8.70;;
76733;SDS011;65660;53.288;14.666;2024-03-25T23:04:34;14.50;;;9.53;;
76733;SDS011;65660;53.288;14.666;2024-03-25T23:09:35;17.73;;;9.13;;
76733;SDS011;65660;53.288;14.666;2024-03-25T23:14:35;14.70;;;9.60;;
76733;SDS011;65660;53.288;14.666;2024-03-25T23:19:36;13.70;;;8.10;;
76733;SDS011;65660;53.288;14.666;2024-03-25T23:24:37;15.03;;;7.80;;
76733;SDS011;65660;53.288;14.666;2024-03-25T23:29:38;15.20;;;9.40;;
76733;SDS011;65660;53.288;14.666;2024-03-25T23:34:39;10.93;;;7.97;;
76733;SDS011;65660;53.288;14.666;2024-03-25T23:39:39;11.70;;;8.00;;
76733;SDS011;65660;53.288;14.666;2024-03-25T23:44:40;12.60;;;7.80;;
76733;SDS011;65660;53.288;14.666;2024-03-25T23:49:40;11.23;;;7.87;;
76733;SDS011;65660;53.288;14.666;2024-03-25T23:54:41;12.77;;;8.30;;
76733;SDS011;65660;53.288;14.666;2024-03-25T23:59:42;14.90;;;9.37;;
